createdAt,value
2019-05-09T00:02:55.625Z,10.88
2019-05-09T00:07:16.279Z,10.88
2019-05-09T00:11:36.615Z,10.88
2019-05-09T00:15:58.040Z,10.95
2019-05-09T00:20:18.128Z,10.86
2019-05-09T00:24:39.349Z,10.77
2019-05-09T00:29:00.667Z,10.62
2019-05-09T00:33:23.581Z,10.68
2019-05-09T00:37:44.229Z,10.47
2019-05-09T00:42:04.643Z,10.43
2019-05-09T00:46:25.256Z,10.43
2019-05-09T00:50:45.757Z,10.45
2019-05-09T00:55:06.478Z,10.60
2019-05-09T00:59:27.261Z,10.52
2019-05-09T01:03:48.730Z,10.30
2019-05-09T01:08:09.194Z,10.18
2019-05-09T01:12:29.653Z,10.24
2019-05-09T01:16:50.632Z,10.12
2019-05-09T01:21:13.224Z,10.28
2019-05-09T01:25:33.701Z,10.28
2019-05-09T01:29:54.027Z,10.25
2019-05-09T01:34:15.347Z,10.26
2019-05-09T01:38:36.494Z,10.19
2019-05-09T01:42:57.798Z,10.16
2019-05-09T01:47:17.905Z,10.01
2019-05-09T01:51:38.362Z,10.03
2019-05-09T01:55:59.716Z,9.94
2019-05-09T02:00:20.123Z,9.91
2019-05-09T02:04:41.301Z,9.87
2019-05-09T02:09:03.618Z,9.93
2019-05-09T02:13:24.277Z,10.06
2019-05-09T02:17:58.305Z,9.98
2019-05-09T02:22:08.540Z,10.06
2019-05-09T02:26:29.301Z,9.91
2019-05-09T02:30:50.112Z,9.91
2019-05-09T02:35:12.057Z,9.93
2019-05-09T02:39:32.503Z,9.88
2019-05-09T02:43:53.633Z,9.89
2019-05-09T02:48:14.202Z,9.90
2019-05-09T02:52:34.805Z,9.86
2019-05-09T02:56:58.106Z,9.88
2019-05-09T03:01:19.082Z,9.90
2019-05-09T03:05:39.645Z,9.90
2019-05-09T03:10:00.072Z,9.80
2019-05-09T03:14:20.429Z,9.64
2019-05-09T03:18:41.050Z,9.63
2019-05-09T03:23:03.470Z,9.63
2019-05-09T03:27:23.609Z,9.56
2019-05-09T03:31:44.798Z,9.48
2019-05-09T03:36:07.818Z,9.45
2019-05-09T03:40:29.234Z,9.45
2019-05-09T03:44:49.520Z,9.40
2019-05-09T03:49:10.532Z,9.44
2019-05-09T03:53:31.639Z,9.55
2019-05-09T03:57:52.842Z,9.52
2019-05-09T04:02:13.680Z,9.47
2019-05-09T04:06:34.425Z,9.54
2019-05-09T04:10:58.772Z,9.61
2019-05-09T04:15:19.756Z,9.60
2019-05-09T04:19:40.659Z,9.61
2019-05-09T04:24:01.702Z,9.65
2019-05-09T04:28:22.182Z,9.67
2019-05-09T04:32:43.281Z,9.59
2019-05-09T04:37:03.908Z,9.76
2019-05-09T04:41:25.410Z,9.80
2019-05-09T04:45:47.363Z,9.80
2019-05-09T04:50:08.473Z,9.85
2019-05-09T04:54:29.225Z,9.99
2019-05-09T04:58:50.423Z,10.06
2019-05-09T05:03:11.197Z,9.96
2019-05-09T05:07:31.292Z,10.11
2019-05-09T05:11:52.239Z,10.17
2019-05-09T05:16:12.718Z,10.30
2019-05-09T05:20:32.995Z,10.30
2019-05-09T05:24:59.754Z,10.43
2019-05-09T05:29:19.754Z,10.31
2019-05-09T05:33:41.099Z,10.35
2019-05-09T05:38:04.141Z,10.31
2019-05-09T05:42:28.297Z,10.37
2019-05-09T05:46:50.808Z,10.44
2019-05-09T05:51:12.187Z,10.45
2019-05-09T05:55:37.965Z,10.57
2019-05-09T05:59:58.700Z,10.75
2019-05-09T06:04:19.741Z,11.23
2019-05-09T06:08:40.704Z,11.23
2019-05-09T06:13:01.495Z,11.30
2019-05-09T06:17:43.346Z,11.81
2019-05-09T06:22:07.913Z,11.81
2019-05-09T06:26:29.411Z,11.93
2019-05-09T06:30:50.686Z,12.21
2019-05-09T06:35:14.344Z,12.37
2019-05-09T06:39:34.990Z,12.64
2019-05-09T06:44:11.042Z,12.73
2019-05-09T06:48:18.272Z,12.73
2019-05-09T06:52:39.035Z,12.80
2019-05-09T06:57:00.447Z,12.89
2019-05-09T07:01:21.010Z,13.29
2019-05-09T07:05:41.527Z,13.66
2019-05-09T07:10:01.715Z,13.32
2019-05-09T07:14:28.931Z,13.32
2019-05-09T07:18:44.993Z,13.27
2019-05-09T07:23:05.396Z,13.31
2019-05-09T07:27:28.544Z,13.32
2019-05-09T07:31:49.073Z,13.24
2019-05-09T07:36:10.142Z,13.48
2019-05-09T07:40:30.824Z,13.66
2019-05-09T07:44:52.595Z,13.89
2019-05-09T07:49:13.590Z,13.94
2019-05-09T07:53:33.755Z,14.02
2019-05-09T07:57:55.446Z,14.28
2019-05-09T08:02:17.746Z,14.52
2019-05-09T08:06:38.386Z,14.43
2019-05-09T08:10:59.871Z,14.18
2019-05-09T08:15:20.829Z,14.21
2019-05-09T08:19:41.682Z,14.21
2019-05-09T08:24:02.607Z,14.31
2019-05-09T08:28:23.773Z,14.46
2019-05-09T08:32:44.280Z,14.63
2019-05-09T08:37:04.818Z,14.98
2019-05-09T08:41:25.508Z,14.82
2019-05-09T08:45:48.343Z,14.97
2019-05-09T08:50:08.577Z,15.00
2019-05-09T08:54:29.225Z,14.89
2019-05-09T08:58:50.193Z,15.25
2019-05-09T09:03:10.338Z,15.68
2019-05-09T09:07:30.862Z,15.89
2019-05-09T09:11:51.456Z,15.55
2019-05-09T09:16:18.739Z,15.55
2019-05-09T09:20:34.450Z,15.60
2019-05-09T09:24:55.046Z,15.70
2019-05-09T09:29:17.738Z,15.86
2019-05-09T09:33:38.469Z,15.97
2019-05-09T09:37:59.914Z,16.11
2019-05-09T09:42:20.386Z,16.05
2019-05-09T09:46:41.254Z,16.14
2019-05-09T09:51:02.490Z,16.16
2019-05-09T09:55:23.224Z,16.21
2019-05-09T09:59:43.456Z,16.28
2019-05-09T10:04:19.063Z,16.08
2019-05-09T10:08:26.896Z,15.95
2019-05-09T10:12:49.418Z,15.72
2019-05-09T10:17:10.460Z,15.71
2019-05-09T10:21:31.040Z,15.55
2019-05-09T10:25:51.683Z,15.55
2019-05-09T10:30:12.232Z,15.58
2019-05-09T10:34:33.245Z,15.64
2019-05-09T10:38:53.428Z,15.50
2019-05-09T10:43:14.159Z,15.35
2019-05-09T10:47:34.904Z,15.28
2019-05-09T10:51:58.064Z,15.30
2019-05-09T10:56:19.033Z,15.39
2019-05-09T11:00:39.814Z,15.52
2019-05-09T11:05:00.547Z,15.59
2019-05-09T11:09:21.276Z,15.77
2019-05-09T11:13:41.480Z,15.98
2019-05-09T11:18:02.016Z,15.99
2019-05-09T11:22:23.593Z,16.13
2019-05-09T11:26:44.754Z,16.30
2019-05-09T11:31:07.885Z,16.09
2019-05-09T11:35:28.156Z,15.99
2019-05-09T11:39:48.443Z,15.79
2019-05-09T11:44:08.835Z,15.62
2019-05-09T11:48:30.477Z,15.47
2019-05-09T11:52:51.004Z,15.48
2019-05-09T11:57:12.176Z,15.56
2019-05-09T12:01:32.627Z,15.45
2019-05-09T12:05:52.824Z,15.48
2019-05-09T12:10:13.532Z,15.53
2019-05-09T12:14:34.219Z,15.97
2019-05-09T12:18:54.498Z,16.63
2019-05-09T12:23:14.983Z,17.17
2019-05-09T12:27:36.136Z,17.65
2019-05-09T12:31:56.524Z,17.81
2019-05-09T12:36:19.126Z,17.83
2019-05-09T12:40:39.874Z,18.08
2019-05-09T12:45:00.347Z,18.46
2019-05-09T12:49:20.780Z,18.61
2019-05-09T12:53:41.809Z,18.61
2019-05-09T12:58:02.511Z,19.20
2019-05-09T13:02:23.655Z,19.03
2019-05-09T13:06:44.081Z,19.30
2019-05-09T13:11:04.804Z,18.90
2019-05-09T13:15:30.559Z,18.33
2019-05-09T13:19:49.107Z,18.22
2019-05-09T13:24:10.203Z,18.40
2019-05-09T13:28:31.633Z,18.46
2019-05-09T13:32:52.246Z,18.81
2019-05-09T13:37:13.106Z,18.87
2019-05-09T13:41:33.406Z,19.31
2019-05-09T13:45:54.482Z,19.55
2019-05-09T13:50:15.011Z,19.33
2019-05-09T13:54:38.061Z,18.74
2019-05-09T13:58:58.386Z,18.18
2019-05-09T14:03:19.390Z,18.14
2019-05-09T14:07:40.393Z,17.86
2019-05-09T14:12:01.724Z,17.63
2019-05-09T14:16:22.605Z,17.74
2019-05-09T14:20:43.133Z,17.60
2019-05-09T14:25:03.864Z,17.38
2019-05-09T14:29:25.153Z,17.24
2019-05-09T14:33:47.590Z,16.96
2019-05-09T14:38:09.268Z,16.96
2019-05-09T14:42:30.634Z,16.65
2019-05-09T14:46:52.518Z,16.70
2019-05-09T14:51:14.133Z,16.79
2019-05-09T14:55:34.779Z,16.73
2019-05-09T14:59:58.474Z,16.94
2019-05-09T15:04:19.324Z,17.02
2019-05-09T15:08:39.786Z,16.94
2019-05-09T15:13:01.451Z,16.98
2019-05-09T15:17:22.510Z,16.91
2019-05-09T15:21:43.925Z,17.22
2019-05-09T15:26:04.619Z,17.61
2019-05-09T15:30:28.418Z,18.20
2019-05-09T15:34:47.928Z,18.59
2019-05-09T15:39:08.761Z,18.44
2019-05-09T15:43:29.671Z,18.16
2019-05-09T15:47:50.616Z,18.23
2019-05-09T15:52:11.936Z,18.62
2019-05-09T15:56:32.843Z,18.91
2019-05-09T16:00:53.886Z,18.99
2019-05-09T16:05:14.391Z,19.22
2019-05-09T16:09:37.965Z,19.10
2019-05-09T16:13:58.958Z,19.23
2019-05-09T16:18:20.188Z,18.91
2019-05-09T16:22:41.916Z,18.65
2019-05-09T16:27:03.518Z,18.45
2019-05-09T16:31:24.193Z,18.25
2019-05-09T16:35:45.643Z,18.14
2019-05-09T16:40:08.447Z,18.33
2019-05-09T16:44:29.778Z,18.33
2019-05-09T16:48:50.131Z,18.75
2019-05-09T16:53:11.118Z,19.80
2019-05-09T16:57:32.226Z,19.68
2019-05-09T17:01:52.677Z,19.63
2019-05-09T17:06:12.773Z,20.47
2019-05-09T17:10:33.889Z,21.24
2019-05-09T17:14:54.343Z,21.26
2019-05-09T17:19:19.242Z,21.58
2019-05-09T17:23:38.440Z,21.54
2019-05-09T17:27:59.589Z,21.02
2019-05-09T17:32:20.713Z,20.75
2019-05-09T17:36:41.126Z,20.28
2019-05-09T17:41:01.418Z,20.15
2019-05-09T17:45:21.965Z,19.17
2019-05-09T17:49:43.197Z,18.48
2019-05-09T17:54:03.923Z,17.84
2019-05-09T17:58:30.486Z,17.55
2019-05-09T18:02:48.597Z,17.21
2019-05-09T18:07:09.066Z,16.88
2019-05-09T18:11:29.747Z,16.62
2019-05-09T18:15:50.178Z,16.45
2019-05-09T18:20:11.178Z,16.28
2019-05-09T18:24:37.740Z,16.09
2019-05-09T18:29:01.718Z,16.03
2019-05-09T18:33:21.717Z,15.95
2019-05-09T18:37:42.042Z,15.79
2019-05-09T18:42:03.566Z,15.87
2019-05-09T18:46:24.121Z,15.90
2019-05-09T18:50:45.103Z,15.72
2019-05-09T18:55:06.050Z,15.23
2019-05-09T18:59:27.011Z,14.51
2019-05-09T19:03:47.758Z,13.96
2019-05-09T19:08:08.148Z,13.78
2019-05-09T19:12:28.481Z,13.45
2019-05-09T19:16:48.698Z,13.40
2019-05-09T19:21:09.128Z,13.25
2019-05-09T19:25:29.657Z,13.23
2019-05-09T19:29:50.042Z,13.06
2019-05-09T19:34:10.472Z,12.94
2019-05-09T19:38:31.030Z,12.95
2019-05-09T19:42:51.694Z,12.85
2019-05-09T19:47:12.534Z,12.87
2019-05-09T19:51:33.524Z,12.59
2019-05-09T19:55:54.964Z,12.67
2019-05-09T20:00:18.856Z,12.64
2019-05-09T20:04:39.881Z,12.56
2019-05-09T20:09:01.038Z,12.60
2019-05-09T20:13:21.715Z,12.45
2019-05-09T20:17:42.003Z,12.50
2019-05-09T20:22:02.914Z,12.51
2019-05-09T20:26:23.743Z,12.49
2019-05-09T20:30:44.696Z,12.54
2019-05-09T20:35:05.615Z,12.49
2019-05-09T20:39:26.366Z,12.49
2019-05-09T20:43:46.823Z,12.47
2019-05-09T20:48:07.209Z,12.40
2019-05-09T20:52:27.764Z,12.42
2019-05-09T20:56:48.832Z,12.31
2019-05-09T21:01:09.343Z,12.29
2019-05-09T21:05:30.097Z,12.31
2019-05-09T21:09:50.992Z,12.37
2019-05-09T21:14:11.524Z,12.43
2019-05-09T21:18:32.207Z,12.36
2019-05-09T21:22:53.052Z,12.43
2019-05-09T21:27:13.797Z,12.48
2019-05-09T21:31:35.031Z,12.41
2019-05-09T21:35:55.472Z,12.38
2019-05-09T21:40:16.353Z,12.28
2019-05-09T21:44:36.892Z,12.29
2019-05-09T21:48:57.932Z,12.33
2019-05-09T21:53:18.794Z,12.33
2019-05-09T21:57:38.760Z,12.36
2019-05-09T22:01:59.834Z,12.36
2019-05-09T22:06:20.646Z,12.78
2019-05-09T22:10:41.243Z,12.58
2019-05-09T22:15:04.040Z,12.40
2019-05-09T22:19:25.155Z,12.40
2019-05-09T22:23:56.468Z,12.29
2019-05-09T22:28:13.245Z,12.33
2019-05-09T22:32:33.550Z,12.28
2019-05-09T22:36:55.108Z,12.21
2019-05-09T22:41:15.852Z,12.27
2019-05-09T22:45:36.111Z,12.27
2019-05-09T22:49:56.238Z,12.31
2019-05-09T22:54:16.371Z,12.21
2019-05-09T22:58:36.475Z,12.33
2019-05-09T23:02:58.107Z,12.29
2019-05-09T23:07:18.812Z,12.24
2019-05-09T23:11:39.043Z,12.24
2019-05-09T23:15:59.797Z,12.17
2019-05-09T23:20:20.374Z,12.17
2019-05-09T23:24:44.406Z,12.11
2019-05-09T23:29:03.572Z,12.10
2019-05-09T23:33:24.191Z,12.18
2019-05-09T23:37:44.898Z,12.10
2019-05-09T23:42:05.821Z,12.08
2019-05-09T23:46:26.392Z,11.92
2019-05-09T23:50:47.033Z,11.84
2019-05-09T23:55:07.856Z,11.90
2019-05-09T23:59:28.447Z,11.91
